sensor_id;sensor_type;location;lat;lon;timestamp;P1;durP1;ratioP1;P2;durP2;ratioP2
43124;SDS011;49182;50.788;7.318;2023-04-24T00:01:46;1.33;;;0.70;;
43124;SDS011;49182;50.788;7.318;2023-04-24T00:04:13;2.58;;;0.45;;
43124;SDS011;49182;50.788;7.318;2023-04-24T00:06:40;1.95;;;0.60;;
43124;SDS011;49182;50.788;7.318;2023-04-24T00:09:06;4.30;;;0.70;;
43124;SDS011;49182;50.788;7.318;2023-04-24T00:11:34;4.45;;;0.57;;
43124;SDS011;49182;50.788;7.318;2023-04-24T00:14:01;1.40;;;0.52;;
43124;SDS011;49182;50.788;7.318;2023-04-24T00:16:28;1.52;;;0.50;;
43124;SDS011;49182;50.788;7.318;2023-04-24T00:18:55;1.42;;;0.63;;
43124;SDS011;49182;50.788;7.318;2023-04-24T00:21:21;1.60;;;0.70;;
43124;SDS011;49182;50.788;7.318;2023-04-24T00:23:48;3.80;;;1.27;;
43124;SDS011;49182;50.788;7.318;2023-04-24T00:26:15;1.45;;;0.60;;
43124;SDS011;49182;50.788;7.318;2023-04-24T00:28:43;3.30;;;0.70;;
43124;SDS011;49182;50.788;7.318;2023-04-24T00:31:09;1.30;;;0.60;;
43124;SDS011;49182;50.788;7.318;2023-04-24T00:33:36;1.65;;;0.60;;
43124;SDS011;49182;50.788;7.318;2023-04-24T00:36:03;2.72;;;0.85;;
43124;SDS011;49182;50.788;7.318;2023-04-24T00:38:29;2.03;;;0.68;;
43124;SDS011;49182;50.788;7.318;2023-04-24T00:40:56;2.47;;;0.80;;
43124;SDS011;49182;50.788;7.318;2023-04-24T00:43:22;2.17;;;0.60;;
43124;SDS011;49182;50.788;7.318;2023-04-24T00:45:50;0.98;;;0.55;;
43124;SDS011;49182;50.788;7.318;2023-04-24T00:48:17;4.00;;;0.70;;
43124;SDS011;49182;50.788;7.318;2023-04-24T00:50:44;1.23;;;0.57;;
43124;SDS011;49182;50.788;7.318;2023-04-24T00:53:13;2.55;;;0.70;;
43124;SDS011;49182;50.788;7.318;2023-04-24T00:55:39;2.30;;;0.95;;
43124;SDS011;49182;50.788;7.318;2023-04-24T00:58:06;1.65;;;0.70;;
43124;SDS011;49182;50.788;7.318;2023-04-24T01:00:34;1.20;;;0.52;;
43124;SDS011;49182;50.788;7.318;2023-04-24T01:03:02;2.25;;;0.70;;
43124;SDS011;49182;50.788;7.318;2023-04-24T01:05:32;1.70;;;0.60;;
43124;SDS011;49182;50.788;7.318;2023-04-24T01:08:00;2.40;;;0.60;;
43124;SDS011;49182;50.788;7.318;2023-04-24T01:10:28;1.20;;;0.50;;
43124;SDS011;49182;50.788;7.318;2023-04-24T01:12:57;1.30;;;0.60;;
43124;SDS011;49182;50.788;7.318;2023-04-24T01:15:24;1.55;;;0.63;;
43124;SDS011;49182;50.788;7.318;2023-04-24T01:17:51;2.10;;;0.70;;
43124;SDS011;49182;50.788;7.318;2023-04-24T01:20:20;1.75;;;0.70;;
43124;SDS011;49182;50.788;7.318;2023-04-24T01:22:48;3.28;;;0.65;;
43124;SDS011;49182;50.788;7.318;2023-04-24T01:25:15;3.20;;;0.70;;
43124;SDS011;49182;50.788;7.318;2023-04-24T01:27:42;2.13;;;0.70;;
43124;SDS011;49182;50.788;7.318;2023-04-24T01:30:11;2.22;;;0.65;;
43124;SDS011;49182;50.788;7.318;2023-04-24T01:32:38;1.33;;;0.65;;
43124;SDS011;49182;50.788;7.318;2023-04-24T01:35:07;1.67;;;0.60;;
43124;SDS011;49182;50.788;7.318;2023-04-24T01:37:34;1.90;;;0.55;;
43124;SDS011;49182;50.788;7.318;2023-04-24T01:40:02;1.75;;;0.43;;
43124;SDS011;49182;50.788;7.318;2023-04-24T01:42:28;0.60;;;0.32;;
43124;SDS011;49182;50.788;7.318;2023-04-24T01:44:56;1.02;;;0.40;;
43124;SDS011;49182;50.788;7.318;2023-04-24T01:47:23;2.78;;;0.43;;
43124;SDS011;49182;50.788;7.318;2023-04-24T01:49:50;1.15;;;0.60;;
43124;SDS011;49182;50.788;7.318;2023-04-24T01:52:17;2.05;;;0.60;;
43124;SDS011;49182;50.788;7.318;2023-04-24T01:54:44;2.60;;;0.70;;
43124;SDS011;49182;50.788;7.318;2023-04-24T01:57:12;1.92;;;0.95;;
43124;SDS011;49182;50.788;7.318;2023-04-24T01:59:40;2.30;;;1.00;;
43124;SDS011;49182;50.788;7.318;2023-04-24T02:02:07;1.92;;;0.95;;
43124;SDS011;49182;50.788;7.318;2023-04-24T02:04:34;1.80;;;0.80;;
43124;SDS011;49182;50.788;7.318;2023-04-24T02:07:01;2.17;;;0.90;;
43124;SDS011;49182;50.788;7.318;2023-04-24T02:09:27;2.47;;;0.98;;
43124;SDS011;49182;50.788;7.318;2023-04-24T02:11:54;2.22;;;1.00;;
43124;SDS011;49182;50.788;7.318;2023-04-24T02:14:22;2.00;;;0.95;;
43124;SDS011;49182;50.788;7.318;2023-04-24T02:16:48;3.80;;;1.00;;
43124;SDS011;49182;50.788;7.318;2023-04-24T02:19:15;2.00;;;1.00;;
43124;SDS011;49182;50.788;7.318;2023-04-24T02:21:42;3.45;;;1.10;;
43124;SDS011;49182;50.788;7.318;2023-04-24T02:24:08;2.25;;;0.88;;
43124;SDS011;49182;50.788;7.318;2023-04-24T02:26:35;2.67;;;0.95;;
43124;SDS011;49182;50.788;7.318;2023-04-24T02:29:01;2.72;;;1.00;;
43124;SDS011;49182;50.788;7.318;2023-04-24T02:31:29;2.25;;;0.90;;
43124;SDS011;49182;50.788;7.318;2023-04-24T02:33:56;2.17;;;1.10;;
43124;SDS011;49182;50.788;7.318;2023-04-24T02:36:22;2.25;;;1.10;;
43124;SDS011;49182;50.788;7.318;2023-04-24T02:38:49;3.08;;;1.30;;
43124;SDS011;49182;50.788;7.318;2023-04-24T02:41:15;2.97;;;1.50;;
43124;SDS011;49182;50.788;7.318;2023-04-24T02:43:42;3.63;;;1.70;;
43124;SDS011;49182;50.788;7.318;2023-04-24T02:46:08;4.78;;;2.25;;
43124;SDS011;49182;50.788;7.318;2023-04-24T02:48:36;3.63;;;1.88;;
43124;SDS011;49182;50.788;7.318;2023-04-24T02:51:03;5.00;;;2.10;;
43124;SDS011;49182;50.788;7.318;2023-04-24T02:53:30;3.55;;;1.90;;
43124;SDS011;49182;50.788;7.318;2023-04-24T02:55:56;6.40;;;2.22;;
43124;SDS011;49182;50.788;7.318;2023-04-24T02:58:23;5.32;;;1.98;;
43124;SDS011;49182;50.788;7.318;2023-04-24T03:00:52;6.38;;;2.72;;
43124;SDS011;49182;50.788;7.318;2023-04-24T03:03:20;4.65;;;2.20;;
43124;SDS011;49182;50.788;7.318;2023-04-24T03:05:48;4.80;;;2.60;;
43124;SDS011;49182;50.788;7.318;2023-04-24T03:08:15;4.65;;;2.25;;
43124;SDS011;49182;50.788;7.318;2023-04-24T03:10:41;4.07;;;2.28;;
43124;SDS011;49182;50.788;7.318;2023-04-24T03:13:08;4.30;;;2.50;;
43124;SDS011;49182;50.788;7.318;2023-04-24T03:15:34;4.43;;;2.10;;
43124;SDS011;49182;50.788;7.318;2023-04-24T03:18:01;5.32;;;2.38;;
43124;SDS011;49182;50.788;7.318;2023-04-24T03:20:28;5.03;;;2.60;;
43124;SDS011;49182;50.788;7.318;2023-04-24T03:22:57;5.03;;;2.10;;
43124;SDS011;49182;50.788;7.318;2023-04-24T03:25:25;4.40;;;2.42;;
43124;SDS011;49182;50.788;7.318;2023-04-24T03:27:51;5.38;;;2.30;;
43124;SDS011;49182;50.788;7.318;2023-04-24T03:30:35;6.85;;;2.60;;
43124;SDS011;49182;50.788;7.318;2023-04-24T03:33:03;5.63;;;2.78;;
43124;SDS011;49182;50.788;7.318;2023-04-24T03:35:33;4.78;;;2.63;;
43124;SDS011;49182;50.788;7.318;2023-04-24T03:38:04;8.93;;;3.00;;
43124;SDS011;49182;50.788;7.318;2023-04-24T03:40:55;5.40;;;3.05;;
43124;SDS011;49182;50.788;7.318;2023-04-24T03:43:38;5.95;;;3.10;;
43124;SDS011;49182;50.788;7.318;2023-04-24T03:46:05;6.05;;;3.00;;
43124;SDS011;49182;50.788;7.318;2023-04-24T03:48:37;6.95;;;3.53;;
43124;SDS011;49182;50.788;7.318;2023-04-24T03:51:05;5.45;;;2.92;;
43124;SDS011;49182;50.788;7.318;2023-04-24T03:53:35;6.53;;;3.00;;
43124;SDS011;49182;50.788;7.318;2023-04-24T03:56:02;6.22;;;3.05;;
43124;SDS011;49182;50.788;7.318;2023-04-24T03:58:31;6.97;;;3.22;;
43124;SDS011;49182;50.788;7.318;2023-04-24T04:00:59;5.20;;;2.92;;
43124;SDS011;49182;50.788;7.318;2023-04-24T04:03:46;6.68;;;3.35;;
43124;SDS011;49182;50.788;7.318;2023-04-24T04:06:18;6.80;;;3.25;;
43124;SDS011;49182;50.788;7.318;2023-04-24T04:08:47;5.07;;;2.80;;
43124;SDS011;49182;50.788;7.318;2023-04-24T04:11:13;7.55;;;3.15;;
43124;SDS011;49182;50.788;7.318;2023-04-24T04:13:40;5.30;;;2.90;;
43124;SDS011;49182;50.788;7.318;2023-04-24T04:16:07;5.97;;;2.95;;
43124;SDS011;49182;50.788;7.318;2023-04-24T04:18:36;4.93;;;2.85;;
43124;SDS011;49182;50.788;7.318;2023-04-24T04:21:05;5.90;;;3.15;;
43124;SDS011;49182;50.788;7.318;2023-04-24T04:23:33;6.50;;;3.50;;
43124;SDS011;49182;50.788;7.318;2023-04-24T04:26:07;6.57;;;3.20;;
43124;SDS011;49182;50.788;7.318;2023-04-24T04:29:00;6.68;;;3.13;;
43124;SDS011;49182;50.788;7.318;2023-04-24T04:31:28;6.25;;;3.55;;
43124;SDS011;49182;50.788;7.318;2023-04-24T04:33:56;7.30;;;3.42;;
43124;SDS011;49182;50.788;7.318;2023-04-24T04:36:22;5.55;;;3.05;;
43124;SDS011;49182;50.788;7.318;2023-04-24T04:38:55;7.60;;;3.35;;
43124;SDS011;49182;50.788;7.318;2023-04-24T04:41:41;6.20;;;2.72;;
43124;SDS011;49182;50.788;7.318;2023-04-24T04:44:09;9.50;;;3.78;;
43124;SDS011;49182;50.788;7.318;2023-04-24T04:46:36;5.68;;;3.15;;
43124;SDS011;49182;50.788;7.318;2023-04-24T04:49:13;6.13;;;3.20;;
43124;SDS011;49182;50.788;7.318;2023-04-24T04:51:40;6.05;;;3.50;;
43124;SDS011;49182;50.788;7.318;2023-04-24T04:54:08;7.28;;;3.22;;
43124;SDS011;49182;50.788;7.318;2023-04-24T04:56:36;6.90;;;3.17;;
43124;SDS011;49182;50.788;7.318;2023-04-24T04:59:04;6.57;;;3.38;;
43124;SDS011;49182;50.788;7.318;2023-04-24T05:01:32;6.43;;;3.25;;
43124;SDS011;49182;50.788;7.318;2023-04-24T05:03:58;10.43;;;3.30;;
43124;SDS011;49182;50.788;7.318;2023-04-24T05:06:25;7.85;;;3.05;;
43124;SDS011;49182;50.788;7.318;2023-04-24T05:08:53;6.25;;;3.70;;
43124;SDS011;49182;50.788;7.318;2023-04-24T05:11:33;6.28;;;3.45;;
43124;SDS011;49182;50.788;7.318;2023-04-24T05:14:01;8.38;;;3.33;;
43124;SDS011;49182;50.788;7.318;2023-04-24T05:16:35;7.78;;;3.20;;
43124;SDS011;49182;50.788;7.318;2023-04-24T05:19:02;8.73;;;3.75;;
43124;SDS011;49182;50.788;7.318;2023-04-24T05:21:34;8.30;;;3.40;;
43124;SDS011;49182;50.788;7.318;2023-04-24T05:24:01;5.57;;;3.20;;
43124;SDS011;49182;50.788;7.318;2023-04-24T05:26:58;7.78;;;3.22;;
43124;SDS011;49182;50.788;7.318;2023-04-24T05:29:31;6.00;;;2.95;;
43124;SDS011;49182;50.788;7.318;2023-04-24T05:31:59;7.20;;;3.60;;
43124;SDS011;49182;50.788;7.318;2023-04-24T05:34:28;6.65;;;3.00;;
43124;SDS011;49182;50.788;7.318;2023-04-24T05:36:56;5.95;;;3.30;;
43124;SDS011;49182;50.788;7.318;2023-04-24T05:39:22;7.40;;;3.45;;
43124;SDS011;49182;50.788;7.318;2023-04-24T05:41:49;7.47;;;3.30;;
43124;SDS011;49182;50.788;7.318;2023-04-24T05:44:16;6.53;;;3.40;;
43124;SDS011;49182;50.788;7.318;2023-04-24T05:46:42;6.57;;;3.55;;
43124;SDS011;49182;50.788;7.318;2023-04-24T05:49:11;8.65;;;3.92;;
43124;SDS011;49182;50.788;7.318;2023-04-24T05:51:39;6.35;;;3.15;;
43124;SDS011;49182;50.788;7.318;2023-04-24T05:54:06;7.88;;;3.33;;
43124;SDS011;49182;50.788;7.318;2023-04-24T05:56:32;6.85;;;3.30;;
43124;SDS011;49182;50.788;7.318;2023-04-24T05:59:02;8.27;;;3.50;;
43124;SDS011;49182;50.788;7.318;2023-04-24T06:01:28;7.22;;;3.78;;
43124;SDS011;49182;50.788;7.318;2023-04-24T06:04:04;9.50;;;3.75;;
43124;SDS011;49182;50.788;7.318;2023-04-24T06:06:33;6.47;;;3.33;;
43124;SDS011;49182;50.788;7.318;2023-04-24T06:09:00;6.50;;;3.50;;
43124;SDS011;49182;50.788;7.318;2023-04-24T06:11:27;9.23;;;3.83;;
43124;SDS011;49182;50.788;7.318;2023-04-24T06:13:54;5.65;;;3.05;;
43124;SDS011;49182;50.788;7.318;2023-04-24T06:16:36;5.65;;;3.22;;
43124;SDS011;49182;50.788;7.318;2023-04-24T06:19:11;8.30;;;4.07;;
43124;SDS011;49182;50.788;7.318;2023-04-24T06:21:39;6.75;;;3.45;;
43124;SDS011;49182;50.788;7.318;2023-04-24T06:24:05;8.95;;;3.85;;
43124;SDS011;49182;50.788;7.318;2023-04-24T06:26:32;7.47;;;3.17;;
43124;SDS011;49182;50.788;7.318;2023-04-24T06:28:59;6.00;;;3.30;;
43124;SDS011;49182;50.788;7.318;2023-04-24T06:31:25;6.35;;;3.28;;
43124;SDS011;49182;50.788;7.318;2023-04-24T06:33:53;6.70;;;3.63;;
43124;SDS011;49182;50.788;7.318;2023-04-24T06:36:19;8.07;;;3.95;;
43124;SDS011;49182;50.788;7.318;2023-04-24T06:38:47;5.95;;;3.63;;
43124;SDS011;49182;50.788;7.318;2023-04-24T06:41:14;8.35;;;3.83;;
43124;SDS011;49182;50.788;7.318;2023-04-24T06:43:40;6.45;;;3.78;;
43124;SDS011;49182;50.788;7.318;2023-04-24T06:46:07;7.88;;;3.92;;
43124;SDS011;49182;50.788;7.318;2023-04-24T06:48:33;8.23;;;4.28;;
43124;SDS011;49182;50.788;7.318;2023-04-24T06:51:00;7.80;;;3.85;;
43124;SDS011;49182;50.788;7.318;2023-04-24T06:53:27;6.85;;;4.22;;
43124;SDS011;49182;50.788;7.318;2023-04-24T06:55:54;8.23;;;3.80;;
43124;SDS011;49182;50.788;7.318;2023-04-24T06:58:21;8.60;;;4.05;;
43124;SDS011;49182;50.788;7.318;2023-04-24T07:00:48;7.35;;;3.90;;
43124;SDS011;49182;50.788;7.318;2023-04-24T07:03:14;9.63;;;4.85;;
43124;SDS011;49182;50.788;7.318;2023-04-24T07:05:41;9.05;;;4.57;;
43124;SDS011;49182;50.788;7.318;2023-04-24T07:08:08;9.80;;;5.03;;
43124;SDS011;49182;50.788;7.318;2023-04-24T07:10:34;9.05;;;4.35;;
43124;SDS011;49182;50.788;7.318;2023-04-24T07:13:02;7.07;;;4.35;;
43124;SDS011;49182;50.788;7.318;2023-04-24T07:15:29;8.75;;;5.53;;
43124;SDS011;49182;50.788;7.318;2023-04-24T07:17:55;10.43;;;4.68;;
43124;SDS011;49182;50.788;7.318;2023-04-24T07:20:22;8.73;;;4.60;;
43124;SDS011;49182;50.788;7.318;2023-04-24T07:22:49;6.65;;;3.70;;
43124;SDS011;49182;50.788;7.318;2023-04-24T07:25:16;7.82;;;3.67;;
43124;SDS011;49182;50.788;7.318;2023-04-24T07:27:42;7.28;;;4.30;;
43124;SDS011;49182;50.788;7.318;2023-04-24T07:30:11;6.82;;;4.00;;
43124;SDS011;49182;50.788;7.318;2023-04-24T07:32:37;9.15;;;4.13;;
43124;SDS011;49182;50.788;7.318;2023-04-24T07:35:04;7.82;;;4.30;;
43124;SDS011;49182;50.788;7.318;2023-04-24T07:37:31;5.65;;;3.92;;
43124;SDS011;49182;50.788;7.318;2023-04-24T07:39:58;5.75;;;3.35;;
43124;SDS011;49182;50.788;7.318;2023-04-24T07:42:25;6.57;;;3.42;;
43124;SDS011;49182;50.788;7.318;2023-04-24T07:44:51;6.03;;;3.33;;
43124;SDS011;49182;50.788;7.318;2023-04-24T07:47:19;5.15;;;2.83;;
43124;SDS011;49182;50.788;7.318;2023-04-24T07:49:46;6.95;;;3.30;;
43124;SDS011;49182;50.788;7.318;2023-04-24T07:52:12;5.50;;;3.13;;
43124;SDS011;49182;50.788;7.318;2023-04-24T07:54:39;6.85;;;2.97;;
43124;SDS011;49182;50.788;7.318;2023-04-24T07:57:06;4.20;;;2.40;;
43124;SDS011;49182;50.788;7.318;2023-04-24T07:59:32;5.13;;;2.40;;
43124;SDS011;49182;50.788;7.318;2023-04-24T08:01:59;4.40;;;1.95;;
43124;SDS011;49182;50.788;7.318;2023-04-24T08:04:27;3.72;;;1.75;;
43124;SDS011;49182;50.788;7.318;2023-04-24T08:06:53;3.78;;;1.80;;
43124;SDS011;49182;50.788;7.318;2023-04-24T08:09:20;4.50;;;1.55;;
43124;SDS011;49182;50.788;7.318;2023-04-24T08:11:46;2.60;;;1.20;;
43124;SDS011;49182;50.788;7.318;2023-04-24T08:14:13;3.33;;;1.40;;
43124;SDS011;49182;50.788;7.318;2023-04-24T08:16:40;3.95;;;1.55;;
43124;SDS011;49182;50.788;7.318;2023-04-24T08:19:07;3.13;;;1.48;;
43124;SDS011;49182;50.788;7.318;2023-04-24T08:21:35;3.05;;;1.08;;
43124;SDS011;49182;50.788;7.318;2023-04-24T08:24:01;3.05;;;1.20;;
43124;SDS011;49182;50.788;7.318;2023-04-24T08:26:28;3.28;;;1.33;;
43124;SDS011;49182;50.788;7.318;2023-04-24T08:28:54;2.85;;;1.02;;
43124;SDS011;49182;50.788;7.318;2023-04-24T08:31:21;2.58;;;1.10;;
43124;SDS011;49182;50.788;7.318;2023-04-24T08:33:47;3.30;;;1.00;;
43124;SDS011;49182;50.788;7.318;2023-04-24T08:36:14;3.08;;;0.88;;
43124;SDS011;49182;50.788;7.318;2023-04-24T08:38:42;2.63;;;0.98;;
43124;SDS011;49182;50.788;7.318;2023-04-24T08:41:09;1.88;;;0.90;;
43124;SDS011;49182;50.788;7.318;2023-04-24T08:43:36;3.05;;;0.82;;
43124;SDS011;49182;50.788;7.318;2023-04-24T08:46:04;2.30;;;0.90;;
43124;SDS011;49182;50.788;7.318;2023-04-24T08:48:37;3.85;;;1.27;;
43124;SDS011;49182;50.788;7.318;2023-04-24T08:51:05;1.70;;;0.90;;
43124;SDS011;49182;50.788;7.318;2023-04-24T08:53:33;2.45;;;1.00;;
43124;SDS011;49182;50.788;7.318;2023-04-24T08:56:02;2.28;;;0.95;;
43124;SDS011;49182;50.788;7.318;2023-04-24T08:58:29;2.92;;;1.00;;
43124;SDS011;49182;50.788;7.318;2023-04-24T09:00:57;2.08;;;0.85;;
43124;SDS011;49182;50.788;7.318;2023-04-24T09:03:24;9.73;;;1.42;;
43124;SDS011;49182;50.788;7.318;2023-04-24T09:05:53;2.55;;;0.70;;
43124;SDS011;49182;50.788;7.318;2023-04-24T09:08:22;1.85;;;0.85;;
43124;SDS011;49182;50.788;7.318;2023-04-24T09:10:50;2.85;;;1.00;;
43124;SDS011;49182;50.788;7.318;2023-04-24T09:13:19;2.30;;;1.02;;
43124;SDS011;49182;50.788;7.318;2023-04-24T09:15:46;3.20;;;1.27;;
43124;SDS011;49182;50.788;7.318;2023-04-24T09:18:13;2.78;;;1.00;;
43124;SDS011;49182;50.788;7.318;2023-04-24T09:20:59;2.95;;;1.10;;
43124;SDS011;49182;50.788;7.318;2023-04-24T09:23:27;4.78;;;1.17;;
43124;SDS011;49182;50.788;7.318;2023-04-24T09:25:55;4.32;;;1.35;;
43124;SDS011;49182;50.788;7.318;2023-04-24T09:28:26;3.35;;;1.30;;
43124;SDS011;49182;50.788;7.318;2023-04-24T09:31:02;6.10;;;1.70;;
43124;SDS011;49182;50.788;7.318;2023-04-24T09:33:30;4.50;;;1.35;;
43124;SDS011;49182;50.788;7.318;2023-04-24T09:35:56;3.50;;;1.75;;
43124;SDS011;49182;50.788;7.318;2023-04-24T09:38:30;3.63;;;1.60;;
43124;SDS011;49182;50.788;7.318;2023-04-24T09:40:58;6.50;;;1.42;;
43124;SDS011;49182;50.788;7.318;2023-04-24T09:43:27;5.53;;;1.90;;
43124;SDS011;49182;50.788;7.318;2023-04-24T09:45:55;4.85;;;1.67;;
43124;SDS011;49182;50.788;7.318;2023-04-24T09:48:33;4.00;;;2.00;;
43124;SDS011;49182;50.788;7.318;2023-04-24T09:51:01;4.18;;;2.00;;
43124;SDS011;49182;50.788;7.318;2023-04-24T09:53:28;3.63;;;1.83;;
43124;SDS011;49182;50.788;7.318;2023-04-24T09:56:01;4.43;;;2.10;;
43124;SDS011;49182;50.788;7.318;2023-04-24T09:58:30;5.82;;;2.67;;
43124;SDS011;49182;50.788;7.318;2023-04-24T10:00:57;5.50;;;2.20;;
43124;SDS011;49182;50.788;7.318;2023-04-24T10:03:24;5.20;;;2.42;;
43124;SDS011;49182;50.788;7.318;2023-04-24T10:05:52;4.85;;;2.40;;
43124;SDS011;49182;50.788;7.318;2023-04-24T10:08:19;4.57;;;2.17;;
43124;SDS011;49182;50.788;7.318;2023-04-24T10:10:46;5.38;;;2.40;;
43124;SDS011;49182;50.788;7.318;2023-04-24T10:13:13;10.88;;;2.88;;
43124;SDS011;49182;50.788;7.318;2023-04-24T10:15:42;5.55;;;2.78;;
43124;SDS011;49182;50.788;7.318;2023-04-24T10:18:09;7.95;;;2.05;;
43124;SDS011;49182;50.788;7.318;2023-04-24T10:20:37;5.88;;;2.83;;
43124;SDS011;49182;50.788;7.318;2023-04-24T10:23:06;6.28;;;3.40;;
43124;SDS011;49182;50.788;7.318;2023-04-24T10:25:33;5.15;;;2.78;;
43124;SDS011;49182;50.788;7.318;2023-04-24T10:28:01;5.80;;;2.65;;
43124;SDS011;49182;50.788;7.318;2023-04-24T10:30:29;5.72;;;2.80;;
43124;SDS011;49182;50.788;7.318;2023-04-24T10:32:59;7.53;;;3.22;;
43124;SDS011;49182;50.788;7.318;2023-04-24T10:35:25;12.30;;;4.10;;
43124;SDS011;49182;50.788;7.318;2023-04-24T10:37:54;11.60;;;3.50;;
43124;SDS011;49182;50.788;7.318;2023-04-24T10:40:25;8.88;;;3.50;;
43124;SDS011;49182;50.788;7.318;2023-04-24T10:42:53;11.95;;;3.60;;
43124;SDS011;49182;50.788;7.318;2023-04-24T10:45:23;10.85;;;3.75;;
43124;SDS011;49182;50.788;7.318;2023-04-24T10:47:51;7.30;;;2.55;;
43124;SDS011;49182;50.788;7.318;2023-04-24T10:50:20;6.10;;;2.75;;
43124;SDS011;49182;50.788;7.318;2023-04-24T10:52:47;5.72;;;2.65;;
43124;SDS011;49182;50.788;7.318;2023-04-24T10:55:15;6.32;;;2.58;;
43124;SDS011;49182;50.788;7.318;2023-04-24T11:00:31;7.60;;;2.78;;
43124;SDS011;49182;50.788;7.318;2023-04-24T11:02:58;6.63;;;2.47;;
43124;SDS011;49182;50.788;7.318;2023-04-24T11:08:22;10.77;;;3.30;;
43124;SDS011;49182;50.788;7.318;2023-04-24T11:10:54;6.63;;;2.67;;
43124;SDS011;49182;50.788;7.318;2023-04-24T11:13:22;8.10;;;2.88;;
43124;SDS011;49182;50.788;7.318;2023-04-24T11:18:41;9.05;;;3.08;;
43124;SDS011;49182;50.788;7.318;2023-04-24T11:21:13;7.20;;;2.90;;
43124;SDS011;49182;50.788;7.318;2023-04-24T11:23:42;11.35;;;4.88;;
43124;SDS011;49182;50.788;7.318;2023-04-24T11:26:10;10.52;;;3.50;;
43124;SDS011;49182;50.788;7.318;2023-04-24T11:28:43;8.52;;;3.25;;
43124;SDS011;49182;50.788;7.318;2023-04-24T11:34:07;14.15;;;4.78;;
43124;SDS011;49182;50.788;7.318;2023-04-24T11:36:36;9.95;;;3.13;;
43124;SDS011;49182;50.788;7.318;2023-04-24T11:39:02;10.57;;;3.88;;
43124;SDS011;49182;50.788;7.318;2023-04-24T11:41:29;13.73;;;4.95;;
43124;SDS011;49182;50.788;7.318;2023-04-24T11:43:56;14.35;;;5.13;;
43124;SDS011;49182;50.788;7.318;2023-04-24T11:46:26;10.77;;;4.53;;
43124;SDS011;49182;50.788;7.318;2023-04-24T11:48:54;9.50;;;3.97;;
43124;SDS011;49182;50.788;7.318;2023-04-24T11:51:20;7.65;;;3.35;;
43124;SDS011;49182;50.788;7.318;2023-04-24T11:53:50;8.80;;;4.38;;
43124;SDS011;49182;50.788;7.318;2023-04-24T11:56:26;13.25;;;4.63;;
43124;SDS011;49182;50.788;7.318;2023-04-24T11:58:53;10.07;;;4.65;;
43124;SDS011;49182;50.788;7.318;2023-04-24T12:01:20;9.98;;;3.58;;
43124;SDS011;49182;50.788;7.318;2023-04-24T12:03:47;7.65;;;3.80;;
43124;SDS011;49182;50.788;7.318;2023-04-24T12:06:15;10.32;;;4.03;;
43124;SDS011;49182;50.788;7.318;2023-04-24T12:08:41;9.68;;;4.03;;
43124;SDS011;49182;50.788;7.318;2023-04-24T12:11:09;8.10;;;3.95;;
43124;SDS011;49182;50.788;7.318;2023-04-24T12:13:36;14.15;;;4.70;;
43124;SDS011;49182;50.788;7.318;2023-04-24T12:16:02;11.85;;;5.35;;
43124;SDS011;49182;50.788;7.318;2023-04-24T12:18:30;9.15;;;3.80;;
43124;SDS011;49182;50.788;7.318;2023-04-24T12:23:42;8.57;;;3.92;;
43124;SDS011;49182;50.788;7.318;2023-04-24T12:26:10;11.65;;;3.67;;
43124;SDS011;49182;50.788;7.318;2023-04-24T12:28:37;11.18;;;3.80;;
43124;SDS011;49182;50.788;7.318;2023-04-24T12:31:05;8.52;;;3.53;;
43124;SDS011;49182;50.788;7.318;2023-04-24T12:33:33;5.82;;;3.30;;
43124;SDS011;49182;50.788;7.318;2023-04-24T12:36:01;7.35;;;3.35;;
43124;SDS011;49182;50.788;7.318;2023-04-24T12:38:28;10.38;;;3.00;;
43124;SDS011;49182;50.788;7.318;2023-04-24T12:41:01;8.38;;;3.83;;
43124;SDS011;49182;50.788;7.318;2023-04-24T12:43:30;8.70;;;3.55;;
43124;SDS011;49182;50.788;7.318;2023-04-24T12:45:56;7.70;;;3.90;;
43124;SDS011;49182;50.788;7.318;2023-04-24T12:48:23;10.70;;;3.95;;
43124;SDS011;49182;50.788;7.318;2023-04-24T12:50:50;10.38;;;4.60;;
43124;SDS011;49182;50.788;7.318;2023-04-24T12:53:17;10.95;;;4.03;;
43124;SDS011;49182;50.788;7.318;2023-04-24T12:55:44;8.65;;;3.80;;
43124;SDS011;49182;50.788;7.318;2023-04-24T12:58:10;9.43;;;4.07;;
43124;SDS011;49182;50.788;7.318;2023-04-24T13:00:39;8.75;;;3.90;;
43124;SDS011;49182;50.788;7.318;2023-04-24T13:03:05;10.13;;;3.85;;
43124;SDS011;49182;50.788;7.318;2023-04-24T13:05:32;10.50;;;4.13;;
43124;SDS011;49182;50.788;7.318;2023-04-24T13:07:59;9.20;;;4.13;;
43124;SDS011;49182;50.788;7.318;2023-04-24T13:10:26;8.90;;;5.10;;
43124;SDS011;49182;50.788;7.318;2023-04-24T13:12:52;12.25;;;4.00;;
43124;SDS011;49182;50.788;7.318;2023-04-24T13:15:19;9.88;;;4.85;;
43124;SDS011;49182;50.788;7.318;2023-04-24T13:17:47;9.27;;;4.13;;
43124;SDS011;49182;50.788;7.318;2023-04-24T13:20:14;8.38;;;3.70;;
43124;SDS011;49182;50.788;7.318;2023-04-24T13:22:40;10.77;;;4.43;;
43124;SDS011;49182;50.788;7.318;2023-04-24T13:25:07;19.52;;;5.00;;
43124;SDS011;49182;50.788;7.318;2023-04-24T13:27:34;10.88;;;4.20;;
43124;SDS011;49182;50.788;7.318;2023-04-24T13:30:00;10.00;;;4.78;;
43124;SDS011;49182;50.788;7.318;2023-04-24T13:32:27;7.93;;;4.32;;
43124;SDS011;49182;50.788;7.318;2023-04-24T13:34:55;10.68;;;4.43;;
43124;SDS011;49182;50.788;7.318;2023-04-24T13:37:22;11.77;;;4.22;;
43124;SDS011;49182;50.788;7.318;2023-04-24T13:39:49;9.00;;;4.60;;
43124;SDS011;49182;50.788;7.318;2023-04-24T13:42:16;10.52;;;4.03;;
43124;SDS011;49182;50.788;7.318;2023-04-24T13:44:43;13.50;;;4.78;;
43124;SDS011;49182;50.788;7.318;2023-04-24T13:47:10;10.00;;;4.80;;
43124;SDS011;49182;50.788;7.318;2023-04-24T13:49:36;9.65;;;4.22;;
43124;SDS011;49182;50.788;7.318;2023-04-24T13:52:04;9.38;;;4.90;;
43124;SDS011;49182;50.788;7.318;2023-04-24T13:54:31;11.35;;;6.20;;
43124;SDS011;49182;50.788;7.318;2023-04-24T13:56:58;11.23;;;4.28;;
43124;SDS011;49182;50.788;7.318;2023-04-24T13:59:24;11.55;;;4.30;;
43124;SDS011;49182;50.788;7.318;2023-04-24T14:01:51;10.77;;;4.53;;
43124;SDS011;49182;50.788;7.318;2023-04-24T14:04:18;9.05;;;4.35;;
43124;SDS011;49182;50.788;7.318;2023-04-24T14:06:45;11.63;;;4.90;;
43124;SDS011;49182;50.788;7.318;2023-04-24T14:09:13;14.30;;;4.55;;
43124;SDS011;49182;50.788;7.318;2023-04-24T14:11:39;8.35;;;4.18;;
43124;SDS011;49182;50.788;7.318;2023-04-24T14:14:07;9.32;;;3.97;;
43124;SDS011;49182;50.788;7.318;2023-04-24T14:16:34;9.57;;;4.32;;
43124;SDS011;49182;50.788;7.318;2023-04-24T14:19:00;10.77;;;4.30;;
43124;SDS011;49182;50.788;7.318;2023-04-24T14:21:27;8.30;;;3.92;;
43124;SDS011;49182;50.788;7.318;2023-04-24T14:23:53;7.95;;;3.55;;
43124;SDS011;49182;50.788;7.318;2023-04-24T14:26:21;11.98;;;3.63;;
43124;SDS011;49182;50.788;7.318;2023-04-24T14:28:48;7.30;;;3.72;;
43124;SDS011;49182;50.788;7.318;2023-04-24T14:31:16;7.63;;;3.80;;
43124;SDS011;49182;50.788;7.318;2023-04-24T14:33:42;9.18;;;4.10;;
43124;SDS011;49182;50.788;7.318;2023-04-24T14:36:09;8.25;;;3.97;;
43124;SDS011;49182;50.788;7.318;2023-04-24T14:38:36;10.60;;;4.60;;
43124;SDS011;49182;50.788;7.318;2023-04-24T14:41:03;9.95;;;4.53;;
43124;SDS011;49182;50.788;7.318;2023-04-24T14:43:37;9.25;;;3.92;;
43124;SDS011;49182;50.788;7.318;2023-04-24T14:46:03;7.47;;;3.67;;
43124;SDS011;49182;50.788;7.318;2023-04-24T14:48:30;8.40;;;3.95;;
43124;SDS011;49182;50.788;7.318;2023-04-24T14:50:56;9.20;;;4.57;;
43124;SDS011;49182;50.788;7.318;2023-04-24T14:53:23;7.03;;;3.83;;
43124;SDS011;49182;50.788;7.318;2023-04-24T14:55:50;7.47;;;4.03;;
43124;SDS011;49182;50.788;7.318;2023-04-24T14:58:16;10.80;;;4.30;;
43124;SDS011;49182;50.788;7.318;2023-04-24T15:00:44;10.10;;;4.10;;
43124;SDS011;49182;50.788;7.318;2023-04-24T15:03:11;8.70;;;3.63;;
43124;SDS011;49182;50.788;7.318;2023-04-24T15:05:38;11.65;;;3.80;;